Time;durP1;ratioP1;P1;durP2;ratioP2;P2;SDS_P1;SDS_P2;PMS_P1;PMS_P2;Temp;Humidity;BMP_temperature;BMP_pressure;BME280_temperature;BME280_humidity;BME280_pressure;Samples;Min_cycle;Max_cycle;Signal;HPM_P1;HPM_P2
2024/03/06 00:00:01;;;;;;;32.50;20.63;;;8.30;99.90;;;;;;5036460;28;20362;-82
2024/03/06 00:02:27;;;;;;;32.47;20.93;;;8.30;99.90;;;;;;5036580;28;20179;-82
2024/03/06 00:04:53;;;;;;;33.17;21.07;;;8.20;99.90;;;;;;5036167;28;20026;-82
2024/03/06 00:07:19;;;;;;;34.73;19.83;;;8.20;99.90;;;;;;5036044;28;20021;-82
2024/03/06 00:09:44;;;;;;;34.33;19.93;;;8.10;99.90;;;;;;5036010;28;20525;-82
2024/03/06 00:12:10;;;;;;;31.80;20.80;;;8.10;99.90;;;;;;5039377;28;20049;-82
2024/03/06 00:14:36;;;;;;;32.60;20.50;;;8.00;99.90;;;;;;5039665;28;20021;-82
2024/03/06 00:17:06;;;;;;;34.03;20.73;;;7.90;99.90;;;;;;5039051;28;20060;-82
2024/03/06 00:19:32;;;;;;;35.23;22.17;;;7.90;99.90;;;;;;5039017;28;20031;-82
2024/03/06 00:21:59;;;;;;;35.40;21.57;;;7.80;99.90;;;;;;5056898;28;20025;-82
2024/03/06 00:24:25;;;;;;;34.30;21.97;;;7.80;99.90;;;;;;5041185;28;20550;-82
2024/03/06 00:26:51;;;;;;;33.67;20.87;;;7.70;99.90;;;;;;5043289;28;20077;-82
2024/03/06 00:29:16;;;;;;;35.67;21.57;;;7.70;99.90;;;;;;5043247;28;20128;-83
2024/03/06 00:31:43;;;;;;;36.37;22.03;;;7.60;99.90;;;;;;5043245;28;20025;-83
2024/03/06 00:34:11;;;;;;;35.00;21.97;;;7.60;99.90;;;;;;5042684;28;20009;-83
2024/03/06 00:36:37;;;;;;;38.30;21.73;;;7.60;99.90;;;;;;5043212;28;20029;-83
2024/03/06 00:39:04;;;;;;;34.97;21.13;;;7.50;99.90;;;;;;5042831;28;20028;-83
2024/03/06 00:41:30;;;;;;;33.73;21.53;;;7.50;99.90;;;;;;5043109;28;20037;-82
2024/03/06 00:43:56;;;;;;;35.97;21.93;;;7.40;99.90;;;;;;5043381;28;20017;-83
2024/03/06 00:46:23;;;;;;;35.97;22.27;;;7.40;99.90;;;;;;5043159;28;20519;-83
2024/03/06 00:48:48;;;;;;;33.60;22.87;;;7.40;99.90;;;;;;5043061;28;20056;-82
2024/03/06 00:51:14;;;;;;;38.37;23.53;;;7.30;99.90;;;;;;5042374;28;20021;-82
2024/03/06 00:53:40;;;;;;;32.77;22.90;;;7.30;99.90;;;;;;5042911;28;20074;-82
2024/03/06 00:56:06;;;;;;;36.67;22.50;;;7.20;99.90;;;;;;5042516;28;20025;-82
2024/03/06 00:58:32;;;;;;;38.43;22.70;;;7.20;99.90;;;;;;5042718;28;20010;-82
2024/03/06 01:00:58;;;;;;;38.90;24.23;;;7.10;99.90;;;;;;5042130;28;20017;-82
2024/03/06 01:03:24;;;;;;;41.23;24.97;;;7.10;99.90;;;;;;5041927;28;20029;-83
2024/03/06 01:05:52;;;;;;;35.03;22.23;;;7.00;99.90;;;;;;5043234;28;20017;-83
2024/03/06 01:08:18;;;;;;;40.80;24.87;;;7.00;99.90;;;;;;5042026;28;20058;-83
2024/03/06 01:10:44;;;;;;;39.97;24.47;;;7.00;99.90;;;;;;5042486;28;20099;-82
2024/03/06 01:13:10;;;;;;;37.67;23.27;;;7.00;99.90;;;;;;5060179;28;20056;-82
2024/03/06 01:15:37;;;;;;;41.57;25.03;;;6.90;99.90;;;;;;5042010;28;20031;-82
2024/03/06 01:18:03;;;;;;;39.07;23.73;;;6.90;99.90;;;;;;5060283;28;20024;-82
2024/03/06 01:20:28;;;;;;;41.30;25.30;;;6.90;99.90;;;;;;5060523;28;20050;-83
2024/03/06 01:22:54;;;;;;;42.73;24.93;;;6.90;99.90;;;;;;5042513;28;20036;-82
2024/03/06 01:25:20;;;;;;;40.33;25.13;;;6.80;99.90;;;;;;5042141;28;20025;-83
2024/03/06 01:27:48;;;;;;;39.67;24.87;;;6.80;99.90;;;;;;5042142;28;20025;-83
2024/03/06 01:30:14;;;;;;;43.47;25.60;;;6.80;99.90;;;;;;5060120;28;20041;-82
2024/03/06 01:32:40;;;;;;;39.17;24.33;;;6.70;99.90;;;;;;5041750;28;20021;-83
2024/03/06 01:35:06;;;;;;;34.87;22.90;;;6.70;99.90;;;;;;5042267;28;20021;-83
2024/03/06 01:37:32;;;;;;;37.23;23.70;;;6.70;99.90;;;;;;5042267;28;20025;-82
2024/03/06 01:39:58;;;;;;;40.53;25.10;;;6.60;99.90;;;;;;5060267;28;20032;-82
2024/03/06 01:42:24;;;;;;;40.13;23.93;;;6.60;99.90;;;;;;5041991;28;20105;-81
2024/03/06 01:44:50;;;;;;;38.93;24.47;;;6.60;99.90;;;;;;5042199;28;20021;-81
2024/03/06 01:47:15;;;;;;;40.00;24.47;;;6.60;99.90;;;;;;5059674;28;20026;-82
2024/03/06 01:49:42;;;;;;;38.60;24.80;;;6.50;99.90;;;;;;5041787;28;20097;-83
2024/03/06 01:52:11;;;;;;;41.73;24.00;;;6.50;99.90;;;;;;5041898;28;20508;-83
2024/03/06 01:54:38;;;;;;;35.33;23.73;;;6.40;99.90;;;;;;5042142;28;20089;-82
2024/03/06 01:57:05;;;;;;;38.50;23.93;;;6.50;99.90;;;;;;5060219;28;20073;-82
2024/03/06 01:59:30;;;;;;;35.67;23.80;;;6.40;99.90;;;;;;5041439;28;20021;-82
2024/03/06 02:01:56;;;;;;;36.67;23.10;;;6.30;99.90;;;;;;5041891;28;20112;-81
2024/03/06 02:04:23;;;;;;;34.00;21.90;;;6.30;99.90;;;;;;5041565;28;20033;-82
2024/03/06 02:06:49;;;;;;;38.07;23.83;;;6.30;99.90;;;;;;5041657;28;20075;-82
2024/03/06 02:09:15;;;;;;;37.40;23.93;;;6.30;99.90;;;;;;5059823;28;20029;-83
2024/03/06 02:11:41;;;;;;;33.87;21.73;;;6.30;99.90;;;;;;5041923;28;20370;-82
2024/03/06 02:14:09;;;;;;;34.60;21.93;;;6.20;99.90;;;;;;5059872;28;20045;-83
2024/03/06 02:16:41;;;;;;;33.60;20.63;;;6.20;99.90;;;;;;5063791;28;20029;-83
2024/03/06 02:19:08;;;;;;;37.47;22.53;;;6.20;99.90;;;;;;5046004;28;20104;-83
2024/03/06 02:21:34;;;;;;;33.27;19.87;;;6.20;99.90;;;;;;5045363;28;20016;-82
2024/03/06 02:24:00;;;;;;;35.13;20.07;;;6.10;99.90;;;;;;5045727;28;20080;-82
2024/03/06 02:26:26;;;;;;;33.30;20.10;;;6.10;99.90;;;;;;5045659;28;20051;-83
2024/03/06 02:28:53;;;;;;;47.80;19.33;;;6.00;99.90;;;;;;5045562;28;20051;-82
2024/03/06 02:31:20;;;;;;;33.57;18.70;;;6.00;99.90;;;;;;5045000;28;20025;-82
2024/03/06 02:33:48;;;;;;;38.40;17.13;;;6.00;99.90;;;;;;5045547;28;20028;-82
2024/03/06 02:36:22;;;;;;;36.23;20.27;;;6.00;99.90;;;;;;5045986;28;20048;-82
2024/03/06 02:38:48;;;;;;;31.63;17.63;;;6.00;99.90;;;;;;5045295;28;20138;-82
2024/03/06 02:41:15;;;;;;;29.03;17.27;;;5.90;99.90;;;;;;5039673;28;20021;-84
2024/03/06 02:43:42;;;;;;;34.87;18.63;;;5.90;99.90;;;;;;5062477;28;20025;-81
2024/03/06 02:46:08;;;;;;;32.00;18.53;;;5.80;99.90;;;;;;5045507;28;20074;-81
2024/03/06 02:48:34;;;;;;;31.90;18.23;;;5.90;99.90;;;;;;5045506;28;20063;-84
2024/03/06 02:50:59;;;;;;;39.73;19.17;;;5.80;99.90;;;;;;5045138;28;20029;-82
2024/03/06 02:53:26;;;;;;;38.37;19.77;;;5.80;99.90;;;;;;5045514;28;20021;-83
2024/03/06 02:55:52;;;;;;;44.10;18.27;;;5.80;99.90;;;;;;5044968;28;20029;-83
2024/03/06 02:58:17;;;;;;;57.67;18.23;;;5.80;99.90;;;;;;5044975;28;20039;-83
2024/03/06 03:00:43;;;;;;;41.73;18.43;;;5.80;99.90;;;;;;5040349;28;20017;-84
2024/03/06 03:03:11;;;;;;;43.10;18.00;;;5.70;99.90;;;;;;5036048;28;20037;-83
2024/03/06 03:05:37;;;;;;;27.00;16.10;;;5.70;99.90;;;;;;5027541;28;20041;-83
2024/03/06 03:08:05;;;;;;;32.80;17.43;;;5.70;99.90;;;;;;5027461;28;20018;-83
2024/03/06 03:10:31;;;;;;;28.63;17.67;;;5.70;99.90;;;;;;5028651;28;20033;-84
2024/03/06 03:12:56;;;;;;;25.73;17.17;;;5.70;99.90;;;;;;5027418;28;20038;-83
2024/03/06 03:15:22;;;;;;;31.00;17.73;;;5.70;99.90;;;;;;5025428;28;20048;-83
2024/03/06 03:17:48;;;;;;;30.07;16.30;;;5.70;99.90;;;;;;5041149;28;20025;-84
2024/03/06 03:20:15;;;;;;;34.80;15.80;;;5.70;99.90;;;;;;5025229;28;20029;-82
2024/03/06 03:22:41;;;;;;;27.17;16.97;;;5.70;99.90;;;;;;5024480;28;20021;-82
2024/03/06 03:25:11;;;;;;;28.57;16.97;;;5.60;99.90;;;;;;5024590;28;20028;-83
2024/03/06 03:27:38;;;;;;;28.83;18.00;;;5.60;99.90;;;;;;5023713;28;20034;-84
2024/03/06 03:30:08;;;;;;;25.80;17.23;;;5.60;99.90;;;;;;5042011;28;20033;-83
2024/03/06 03:32:34;;;;;;;27.40;17.93;;;5.60;99.90;;;;;;5024230;28;20036;-84
2024/03/06 03:35:00;;;;;;;27.27;18.03;;;5.60;99.90;;;;;;5024826;28;20017;-84
2024/03/06 03:37:26;;;;;;;29.00;17.30;;;5.50;99.90;;;;;;5024642;28;20036;-83
2024/03/06 03:39:51;;;;;;;26.83;18.17;;;5.50;99.90;;;;;;5024736;28;20030;-84
2024/03/06 03:42:17;;;;;;;25.07;16.87;;;5.50;99.90;;;;;;5024143;28;20030;-83
2024/03/06 03:44:43;;;;;;;27.03;18.60;;;5.50;99.90;;;;;;5030587;28;20022;-83
2024/03/06 03:47:08;;;;;;;28.63;18.07;;;5.40;99.90;;;;;;5024053;28;20049;-82
2024/03/06 03:49:35;;;;;;;27.83;18.53;;;5.40;99.90;;;;;;5024335;28;20049;-83
2024/03/06 03:52:00;;;;;;;30.63;18.47;;;5.40;99.90;;;;;;5024163;28;20018;-83
2024/03/06 03:54:26;;;;;;;28.37;17.70;;;5.30;99.90;;;;;;5024015;28;20017;-82
2024/03/06 03:56:51;;;;;;;30.50;19.73;;;5.30;99.90;;;;;;5024335;28;20021;-82
2024/03/06 03:59:17;;;;;;;30.73;20.03;;;5.30;99.90;;;;;;5024268;28;20101;-82
2024/03/06 04:01:46;;;;;;;34.53;20.27;;;5.30;99.90;;;;;;5024505;28;20069;-82
2024/03/06 04:04:12;;;;;;;33.97;19.83;;;5.30;99.90;;;;;;5023580;28;20071;-81
2024/03/06 04:06:37;;;;;;;37.17;20.43;;;5.30;99.90;;;;;;5024220;28;20025;-81
2024/03/06 04:09:04;;;;;;;38.33;22.73;;;5.20;99.90;;;;;;5041792;28;20394;-82
2024/03/06 04:11:30;;;;;;;34.47;22.63;;;5.20;99.90;;;;;;5023677;28;20017;-82
2024/03/06 04:13:56;;;;;;;33.63;21.70;;;5.20;99.90;;;;;;5023255;28;20099;-82
2024/03/06 04:16:21;;;;;;;37.33;23.03;;;5.20;99.90;;;;;;5024000;28;20024;-82
2024/03/06 04:18:47;;;;;;;39.20;23.47;;;5.20;99.90;;;;;;5023753;28;20034;-82
2024/03/06 04:21:14;;;;;;;37.90;23.07;;;5.20;99.90;;;;;;5023213;28;20090;-82
2024/03/06 04:23:40;;;;;;;41.40;23.20;;;5.20;99.90;;;;;;5023576;28;20028;-82
2024/03/06 04:26:06;;;;;;;42.97;24.57;;;5.20;99.90;;;;;;5023413;28;20017;-83
2024/03/06 04:28:31;;;;;;;37.43;23.03;;;5.20;99.90;;;;;;5023370;28;20017;-82
2024/03/06 04:30:57;;;;;;;41.10;24.33;;;5.20;99.90;;;;;;5022765;28;20014;-82
2024/03/06 04:33:23;;;;;;;36.93;21.43;;;5.20;99.90;;;;;;5023639;28;20072;-82
2024/03/06 04:35:49;;;;;;;33.27;21.90;;;5.10;99.90;;;;;;5023860;28;20112;-81
2024/03/06 04:38:15;;;;;;;36.47;21.13;;;5.10;99.90;;;;;;5022662;28;20022;-81
2024/03/06 04:40:41;;;;;;;36.33;21.87;;;5.10;99.90;;;;;;5023504;28;20052;-82
2024/03/06 04:43:07;;;;;;;36.63;21.13;;;5.10;99.90;;;;;;5023145;28;20016;-81
2024/03/06 04:45:33;;;;;;;38.10;21.43;;;5.10;99.90;;;;;;5023071;28;20049;-83
2024/03/06 04:47:59;;;;;;;34.10;21.53;;;5.00;99.90;;;;;;5023156;28;20018;-81
2024/03/06 04:50:25;;;;;;;32.00;19.93;;;5.00;99.90;;;;;;5023217;28;20025;-81
2024/03/06 04:52:50;;;;;;;31.87;20.07;;;5.00;99.90;;;;;;5041283;28;20018;-81
2024/03/06 04:55:20;;;;;;;31.00;19.57;;;4.90;99.90;;;;;;5022726;28;20461;-81
2024/03/06 04:57:46;;;;;;;31.90;17.67;;;4.90;99.90;;;;;;5023047;28;20025;-81
2024/03/06 05:00:12;;;;;;;27.73;18.07;;;4.90;99.90;;;;;;5022886;28;20409;-81
2024/03/06 05:02:38;;;;;;;31.33;18.33;;;4.80;99.90;;;;;;5022865;28;20480;-82
2024/03/06 05:05:04;;;;;;;29.47;18.27;;;4.80;99.90;;;;;;5022974;28;20087;-82
2024/03/06 05:07:31;;;;;;;32.47;17.80;;;4.80;99.90;;;;;;5022724;28;20465;-81
2024/03/06 05:09:58;;;;;;;28.50;17.87;;;4.80;99.90;;;;;;5022883;28;20025;-81
2024/03/06 05:12:24;;;;;;;27.47;17.40;;;4.70;99.90;;;;;;5022376;28;20119;-81
2024/03/06 05:14:54;;;;;;;27.67;17.70;;;4.70;99.90;;;;;;5023179;28;20021;-81
2024/03/06 05:17:20;;;;;;;30.30;18.27;;;4.70;99.90;;;;;;5040561;28;20018;-82
2024/03/06 05:19:50;;;;;;;30.43;18.40;;;4.70;99.90;;;;;;5022473;28;20030;-81
2024/03/06 05:22:16;;;;;;;32.60;18.90;;;4.70;99.90;;;;;;5022126;28;20026;-81
2024/03/06 05:24:43;;;;;;;26.67;18.03;;;4.70;99.90;;;;;;5022566;28;20025;-81
2024/03/06 05:27:16;;;;;;;31.90;19.70;;;4.60;99.90;;;;;;5022754;28;20036;-81
2024/03/06 05:29:42;;;;;;;22.25;14.05;;;4.60;99.90;;;;;;5033426;28;20017;-81
2024/03/06 05:32:08;;;;;;;30.83;18.33;;;4.60;99.90;;;;;;5022297;28;20029;-82
2024/03/06 05:34:34;;;;;;;33.80;19.13;;;4.60;99.90;;;;;;5038900;28;20021;-82
2024/03/06 05:37:01;;;;;;;33.50;18.90;;;4.60;99.90;;;;;;5022070;28;20013;-82
2024/03/06 05:39:27;;;;;;;33.03;19.13;;;4.60;99.90;;;;;;5022181;28;20040;-82
2024/03/06 05:41:59;;;;;;;34.00;19.80;;;4.50;99.90;;;;;;5022728;28;20481;-82
2024/03/06 05:44:25;;;;;;;28.83;18.13;;;4.50;99.90;;;;;;5022386;28;20060;-81
2024/03/06 05:46:51;;;;;;;33.13;20.53;;;4.50;99.90;;;;;;5040857;28;20034;-81
2024/03/06 05:49:16;;;;;;;36.17;20.77;;;4.50;99.90;;;;;;5024557;28;20021;-82
2024/03/06 05:51:42;;;;;;;33.77;20.93;;;4.50;99.90;;;;;;5043301;28;20464;-82
2024/03/06 05:54:09;;;;;;;36.10;21.03;;;4.50;99.90;;;;;;5048537;28;20543;-82
2024/03/06 05:56:38;;;;;;;37.57;21.67;;;4.50;99.90;;;;;;5066334;28;20028;-82
2024/03/06 05:59:07;;;;;;;36.13;21.97;;;4.50;99.90;;;;;;5048772;28;20039;-82
2024/03/06 06:01:34;;;;;;;52.43;22.53;;;4.60;99.90;;;;;;5048745;28;20033;-82
2024/03/06 06:04:00;;;;;;;54.37;23.57;;;4.60;99.90;;;;;;5048486;28;20028;-82
2024/03/06 06:06:26;;;;;;;76.10;24.77;;;4.60;99.90;;;;;;5048573;28;20029;-82
2024/03/06 06:08:52;;;;;;;53.77;24.43;;;4.60;99.90;;;;;;5066462;28;20483;-81
2024/03/06 06:11:17;;;;;;;53.57;24.03;;;4.70;99.90;;;;;;5048682;28;20032;-81
2024/03/06 06:13:43;;;;;;;55.70;24.80;;;4.70;99.90;;;;;;5048420;28;20068;-81
2024/03/06 06:16:09;;;;;;;123.53;25.77;;;4.70;99.90;;;;;;5048835;28;20021;-81
2024/03/06 06:18:34;;;;;;;83.13;26.53;;;4.80;99.90;;;;;;5048340;28;20113;-80
2024/03/06 06:21:01;;;;;;;117.47;27.83;;;4.80;99.90;;;;;;5048022;28;20029;-80
2024/03/06 06:23:26;;;;;;;45.73;22.00;;;4.80;99.90;;;;;;5048450;28;20088;-80
2024/03/06 06:25:52;;;;;;;67.00;25.20;;;4.80;99.90;;;;;;5048238;28;20048;-80
2024/03/06 06:28:18;;;;;;;51.40;22.30;;;4.80;99.90;;;;;;5048013;28;20021;-80
2024/03/06 06:30:43;;;;;;;47.23;22.23;;;4.80;99.90;;;;;;5065871;28;20033;-79
2024/03/06 06:33:09;;;;;;;49.20;22.80;;;4.90;99.90;;;;;;5042705;28;20052;-80
2024/03/06 06:35:35;;;;;;;77.73;23.77;;;4.90;99.90;;;;;;5047573;28;20480;-80
2024/03/06 06:38:02;;;;;;;67.03;24.73;;;4.90;99.90;;;;;;5046936;28;20025;-80
2024/03/06 06:40:30;;;;;;;42.57;22.43;;;4.90;99.90;;;;;;5047998;28;20060;-81
2024/03/06 06:42:56;;;;;;;48.77;24.07;;;5.00;99.90;;;;;;5063450;28;20021;-81
2024/03/06 06:45:22;;;;;;;38.90;22.40;;;5.00;99.90;;;;;;5048446;28;20035;-80
2024/03/06 06:47:48;;;;;;;87.03;24.40;;;5.00;99.90;;;;;;5049072;28;20051;-81
2024/03/06 06:50:14;;;;;;;36.97;22.77;;;5.00;99.90;;;;;;5048888;28;20051;-80
2024/03/06 06:52:40;;;;;;;64.63;23.03;;;5.10;99.90;;;;;;5049205;28;20021;-80
2024/03/06 06:55:06;;;;;;;50.53;23.50;;;5.10;99.90;;;;;;5048778;28;20032;-80
2024/03/06 06:57:33;;;;;;;55.97;23.30;;;5.10;99.90;;;;;;5045680;28;20483;-80
2024/03/06 06:59:59;;;;;;;59.60;23.37;;;5.20;99.90;;;;;;5043746;28;20059;-81
2024/03/06 07:02:25;;;;;;;41.83;23.03;;;5.30;99.90;;;;;;5044108;28;20017;-81
2024/03/06 07:04:51;;;;;;;44.37;23.77;;;5.30;99.90;;;;;;5043577;28;20023;-81
2024/03/06 07:07:17;;;;;;;44.03;22.40;;;5.40;99.90;;;;;;5044657;28;20400;-81
2024/03/06 07:09:43;;;;;;;59.13;24.00;;;5.40;99.90;;;;;;5044387;28;20013;-81
2024/03/06 07:12:09;;;;;;;70.20;23.97;;;5.50;99.90;;;;;;5044094;28;20048;-80
2024/03/06 07:14:35;;;;;;;71.10;23.93;;;5.60;99.90;;;;;;5062600;28;20100;-81
2024/03/06 07:17:01;;;;;;;64.93;23.43;;;5.60;99.90;;;;;;5044316;28;20022;-79
2024/03/06 07:19:26;;;;;;;71.97;21.07;;;5.70;99.90;;;;;;5044015;28;20086;-81
2024/03/06 07:21:53;;;;;;;50.17;20.47;;;5.70;99.90;;;;;;5044947;28;20284;-81
2024/03/06 07:24:22;;;;;;;42.30;19.70;;;5.70;99.90;;;;;;5045844;28;20054;-79
2024/03/06 07:27:12;;;;;;;54.33;20.50;;;5.80;99.90;;;;;;5022899;28;20053;-79
2024/03/06 07:30:14;;;;;;;60.47;21.50;;;5.80;99.90;;;;;;4990074;28;20034;-80
2024/03/06 07:32:40;;;;;;;69.53;20.83;;;5.80;99.90;;;;;;4948153;29;20090;-81
2024/03/06 07:35:30;;;;;;;78.07;23.50;;;5.90;99.90;;;;;;4947642;29;20295;-81
2024/03/06 07:37:56;;;;;;;63.50;22.27;;;5.90;99.90;;;;;;4942265;29;20056;-80
2024/03/06 07:40:21;;;;;;;70.97;22.93;;;5.90;99.90;;;;;;4942666;29;20664;-81
2024/03/06 07:42:47;;;;;;;77.23;23.03;;;5.90;99.90;;;;;;4942614;29;20047;-81
2024/03/06 07:45:13;;;;;;;101.17;24.17;;;5.90;99.90;;;;;;4926760;29;20064;-81
2024/03/06 07:47:38;;;;;;;68.57;25.03;;;6.00;99.90;;;;;;4941976;29;20036;-81
2024/03/06 07:50:07;;;;;;;81.80;24.07;;;6.00;99.90;;;;;;4942204;29;20078;-81
2024/03/06 07:52:33;;;;;;;74.33;24.20;;;6.10;99.90;;;;;;4926060;29;20036;-80
2024/03/06 07:54:59;;;;;;;106.87;25.60;;;6.10;99.90;;;;;;4942368;29;20118;-80
2024/03/06 07:57:25;;;;;;;67.43;23.83;;;6.20;99.90;;;;;;4941941;29;20556;-80
2024/03/06 07:59:52;;;;;;;78.70;23.60;;;6.20;99.90;;;;;;4941786;29;20066;-81
2024/03/06 08:02:18;;;;;;;77.80;23.90;;;6.30;99.90;;;;;;4942318;29;20066;-80
2024/03/06 08:04:43;;;;;;;70.00;24.40;;;6.40;99.90;;;;;;4941564;29;20028;-80
2024/03/06 08:07:09;;;;;;;62.43;23.53;;;6.40;99.90;;;;;;4918819;29;20414;-81
2024/03/06 08:09:35;;;;;;;62.90;23.37;;;6.40;99.90;;;;;;4929561;29;20453;-80
2024/03/06 08:12:00;;;;;;;75.37;23.87;;;6.50;99.90;;;;;;4941471;29;20107;-81
2024/03/06 08:14:27;;;;;;;78.10;25.43;;;6.50;99.90;;;;;;4941811;29;20043;-81
2024/03/06 08:16:53;;;;;;;70.33;23.33;;;6.60;99.90;;;;;;4959154;28;20053;-81
2024/03/06 08:19:19;;;;;;;72.80;23.53;;;6.70;99.90;;;;;;4983787;28;20034;-80
2024/03/06 08:21:46;;;;;;;109.40;26.73;;;6.80;99.90;;;;;;4987668;28;20069;-80
2024/03/06 08:24:12;;;;;;;70.87;25.27;;;6.80;99.90;;;;;;5043084;28;20435;-81
2024/03/06 08:26:37;;;;;;;137.10;29.03;;;6.80;99.90;;;;;;5043240;28;20148;-81
2024/03/06 08:29:03;;;;;;;82.60;25.40;;;6.90;99.90;;;;;;5043470;28;20025;-80
2024/03/06 08:31:29;;;;;;;63.67;24.50;;;7.00;99.90;;;;;;5042506;28;20025;-80
2024/03/06 08:33:54;;;;;;;63.33;23.90;;;7.10;99.90;;;;;;5043145;28;20051;-80
2024/03/06 08:36:20;;;;;;;45.77;24.30;;;7.10;99.90;;;;;;5043306;28;20100;-81
2024/03/06 08:38:46;;;;;;;64.77;26.17;;;7.20;99.90;;;;;;5043103;28;20025;-80
2024/03/06 08:41:12;;;;;;;60.03;27.07;;;7.30;99.90;;;;;;5043153;28;20036;-81
2024/03/06 08:43:38;;;;;;;51.90;28.53;;;7.30;99.90;;;;;;5042378;28;20036;-80
2024/03/06 08:46:03;;;;;;;62.63;30.63;;;7.30;99.90;;;;;;5041761;28;20035;-80
2024/03/06 08:48:30;;;;;;;67.47;29.93;;;7.40;99.90;;;;;;5043106;28;20033;-80
2024/03/06 08:50:56;;;;;;;57.87;29.77;;;7.40;99.90;;;;;;5042560;28;20013;-81
2024/03/06 08:53:22;;;;;;;49.77;28.07;;;7.40;99.90;;;;;;5043054;28;20021;-80
2024/03/06 08:55:47;;;;;;;53.50;28.57;;;7.50;99.90;;;;;;5042588;28;20044;-81
2024/03/06 08:58:14;;;;;;;49.50;25.17;;;7.50;99.90;;;;;;5043112;28;20388;-80
2024/03/06 09:00:39;;;;;;;48.07;26.37;;;7.60;99.90;;;;;;5060389;28;20025;-80
2024/03/06 09:03:05;;;;;;;46.60;25.13;;;7.60;99.90;;;;;;5042598;28;20048;-81
2024/03/06 09:05:31;;;;;;;51.53;25.17;;;7.70;99.90;;;;;;5042609;28;20032;-80
2024/03/06 09:07:57;;;;;;;52.27;25.83;;;7.70;99.90;;;;;;5042534;28;20052;-80
2024/03/06 09:10:23;;;;;;;47.00;23.43;;;7.80;99.90;;;;;;5042652;28;20097;-80
2024/03/06 09:12:48;;;;;;;53.93;25.27;;;7.80;99.90;;;;;;5042123;28;20079;-81
2024/03/06 09:15:16;;;;;;;43.97;25.63;;;7.90;99.90;;;;;;5042368;28;20017;-80
2024/03/06 09:17:42;;;;;;;45.07;25.90;;;7.90;99.90;;;;;;5042226;28;20079;-81
2024/03/06 09:20:11;;;;;;;49.17;26.23;;;8.00;99.90;;;;;;5042073;28;20393;-80
2024/03/06 09:22:38;;;;;;;45.60;26.33;;;8.00;99.90;;;;;;5042330;28;20017;-81
2024/03/06 09:25:05;;;;;;;53.70;27.13;;;8.10;99.90;;;;;;5041669;28;20373;-81
2024/03/06 09:27:30;;;;;;;46.10;26.00;;;8.10;99.90;;;;;;5042295;28;20017;-79
2024/03/06 09:29:56;;;;;;;46.37;25.03;;;8.10;99.90;;;;;;5042288;28;20017;-80
2024/03/06 09:32:22;;;;;;;46.53;25.57;;;8.20;99.90;;;;;;5042100;28;20063;-80
2024/03/06 09:34:48;;;;;;;45.70;25.53;;;8.20;99.90;;;;;;5042200;28;20108;-80
2024/03/06 09:37:14;;;;;;;39.57;24.37;;;8.20;99.90;;;;;;5042132;28;20025;-81
2024/03/06 09:39:40;;;;;;;40.07;24.23;;;8.30;99.90;;;;;;5041880;28;20174;-81
2024/03/06 09:42:07;;;;;;;42.97;25.33;;;8.30;99.90;;;;;;5042325;28;20122;-80
2024/03/06 09:44:33;;;;;;;42.00;24.87;;;8.40;99.90;;;;;;5042225;28;20033;-81
2024/03/06 09:47:03;;;;;;;46.77;24.60;;;8.50;99.90;;;;;;5042216;28;20048;-81
2024/03/06 09:49:30;;;;;;;38.27;22.33;;;8.50;99.90;;;;;;5042420;28;20178;-81
2024/03/06 09:51:58;;;;;;;40.13;24.37;;;8.60;99.90;;;;;;5042025;28;20059;-81
2024/03/06 09:54:26;;;;;;;41.20;24.33;;;8.70;99.90;;;;;;5041643;28;20017;-81
2024/03/06 09:56:51;;;;;;;42.00;23.70;;;8.80;99.90;;;;;;5041888;28;20021;-81
2024/03/06 09:59:17;;;;;;;43.17;25.00;;;8.90;99.90;;;;;;5041795;28;20032;-81
2024/03/06 10:01:57;;;;;;;42.07;23.63;;;8.90;99.90;;;;;;5042089;28;20087;-81
2024/03/06 10:04:32;;;;;;;45.83;24.07;;;9.00;99.90;;;;;;5042076;28;20017;-81
2024/03/06 10:06:59;;;;;;;43.80;24.17;;;9.00;99.90;;;;;;5041831;28;20052;-80
2024/03/06 10:09:26;;;;;;;39.37;23.03;;;9.00;99.90;;;;;;5058187;28;20071;-81
2024/03/06 10:11:53;;;;;;;41.33;24.00;;;9.00;99.90;;;;;;5041997;28;20032;-81
2024/03/06 10:14:19;;;;;;;46.53;26.07;;;9.00;99.90;;;;;;5041493;28;20041;-81
2024/03/06 10:16:56;;;;;;;40.67;24.23;;;9.10;99.90;;;;;;5042178;28;20021;-81
2024/03/06 10:19:23;;;;;;;43.93;24.77;;;9.20;99.90;;;;;;5042256;28;20029;-80
2024/03/06 10:21:51;;;;;;;44.87;25.63;;;9.20;99.90;;;;;;5041409;28;20021;-81
2024/03/06 10:24:24;;;;;;;39.93;23.93;;;9.20;99.90;;;;;;5041866;28;20032;-81
2024/03/06 10:26:51;;;;;;;39.42;24.38;;;9.20;99.90;;;;;;5041477;28;20029;-81
2024/03/06 10:29:20;;;;;;;41.87;24.30;;;9.30;99.90;;;;;;5060457;28;20025;-81
2024/03/06 10:31:49;;;;;;;40.97;22.73;;;9.30;99.90;;;;;;5041650;28;20021;-81
2024/03/06 10:34:16;;;;;;;39.83;25.07;;;9.40;99.90;;;;;;5042010;28;20031;-80
2024/03/06 10:36:43;;;;;;;42.27;25.10;;;9.40;99.90;;;;;;5044250;28;20045;-82
2024/03/06 10:39:11;;;;;;;45.03;26.83;;;9.50;99.90;;;;;;5045615;28;20391;-80
2024/03/06 10:41:40;;;;;;;41.83;25.47;;;9.50;99.90;;;;;;5045610;28;20017;-80
2024/03/06 10:44:13;;;;;;;41.73;24.67;;;9.60;99.90;;;;;;5045261;28;20063;-80
2024/03/06 10:46:43;;;;;;;43.27;25.97;;;9.60;99.90;;;;;;5045386;28;20036;-80
2024/03/06 10:49:11;;;;;;;42.42;25.70;;;9.70;99.90;;;;;;5045247;28;20084;-81
2024/03/06 10:51:41;;;;;;;41.07;25.60;;;9.80;99.90;;;;;;5045431;28;20032;-81
2024/03/06 10:54:08;;;;;;;41.70;24.38;;;9.90;99.90;;;;;;5045040;28;20025;-81
2024/03/06 10:56:34;;;;;;;41.63;24.17;;;9.90;99.90;;;;;;5044676;28;20041;-80
2024/03/06 10:59:01;;;;;;;38.55;24.30;;;10.00;99.90;;;;;;5062910;28;20037;-80
2024/03/06 11:01:32;;;;;;;40.50;25.00;;;10.00;99.90;;;;;;5044843;28;20024;-81
2024/03/06 11:04:00;;;;;;;45.70;26.10;;;10.10;99.90;;;;;;5044925;28;20119;-80
2024/03/06 11:06:26;;;;;;;38.22;24.48;;;10.20;99.90;;;;;;5044769;28;20504;-82
2024/03/06 11:08:52;;;;;;;40.05;22.25;;;10.30;99.90;;;;;;5044577;28;20088;-81
2024/03/06 11:11:25;;;;;;;40.72;25.23;;;10.30;99.90;;;;;;5044215;28;20032;-80
2024/03/06 11:13:57;;;;;;;37.85;22.92;;;10.40;99.90;;;;;;5044560;28;20049;-81
2024/03/06 11:16:52;;;;;;;37.00;22.60;;;10.60;99.90;;;;;;5042210;28;20020;-81
2024/03/06 11:19:18;;;;;;;41.92;25.60;;;10.80;99.90;;;;;;5054475;28;20033;-80
2024/03/06 11:21:48;;;;;;;44.25;26.67;;;10.80;99.90;;;;;;5061946;28;20029;-81
2024/03/06 11:24:19;;;;;;;45.65;27.92;;;10.90;99.90;;;;;;5043840;28;20032;-81
2024/03/06 11:27:02;;;;;;;46.05;27.58;;;10.90;99.90;;;;;;5042996;28;20028;-80
2024/03/06 11:30:03;;;;;;;43.97;26.17;;;10.90;99.90;;;;;;5044170;28;20028;-81
2024/03/06 11:32:28;;;;;;;40.65;24.30;;;10.90;99.90;;;;;;5042340;28;20070;-82
2024/03/06 11:34:54;;;;;;;42.80;25.17;;;10.90;99.90;;;;;;5043758;28;20393;-80
2024/03/06 11:37:22;;;;;;;37.08;22.95;;;11.00;99.90;;;;;;5043720;28;20013;-81
2024/03/06 11:39:48;;;;;;;45.75;24.33;;;11.20;99.90;;;;;;5043251;28;20392;-81
2024/03/06 11:42:14;;;;;;;37.20;23.77;;;11.60;99.90;;;;;;5044532;28;20112;-82
2024/03/06 11:44:58;;;;;;;35.35;22.83;;;12.10;99.90;;;;;;5044676;28;20031;-82
2024/03/06 11:47:24;;;;;;;34.00;21.60;;;12.40;99.90;;;;;;5043029;28;20106;-82
2024/03/06 11:49:52;;;;;;;36.75;22.90;;;12.60;99.90;;;;;;5061978;28;20040;-82
2024/03/06 11:52:17;;;;;;;37.22;23.05;;;12.70;99.90;;;;;;5043461;28;20485;-81
2024/03/06 11:54:43;;;;;;;38.30;23.38;;;12.90;99.90;;;;;;5043578;28;20028;-81
2024/03/06 11:57:10;;;;;;;40.08;25.85;;;13.00;99.90;;;;;;5043663;28;20032;-82
2024/03/06 11:59:39;;;;;;;34.03;22.10;;;13.10;99.90;;;;;;5044170;28;20115;-82
2024/03/06 12:02:06;;;;;;;34.28;20.27;;;13.30;99.90;;;;;;5043938;28;20120;-82
2024/03/06 12:04:37;;;;;;;32.50;21.65;;;13.40;99.90;;;;;;5043799;28;20029;-82
2024/03/06 12:07:06;;;;;;;35.08;22.80;;;13.60;99.90;;;;;;5043874;28;20031;-82
2024/03/06 12:09:35;;;;;;;30.35;20.20;;;13.90;99.90;;;;;;5061652;28;20029;-82
2024/03/06 12:12:02;;;;;;;43.95;21.05;;;14.50;99.90;;;;;;5062029;28;20025;-82
2024/03/06 12:14:27;;;;;;;28.60;17.67;;;15.00;99.90;;;;;;5043526;28;20067;-82
2024/03/06 12:16:57;;;;;;;27.45;18.13;;;15.50;99.90;;;;;;5043878;28;20021;-82
2024/03/06 12:19:28;;;;;;;25.35;17.65;;;16.10;99.90;;;;;;5043537;28;20049;-81
2024/03/06 12:21:55;;;;;;;25.58;17.85;;;16.90;99.90;;;;;;5043551;28;20025;-83
2024/03/06 12:24:21;;;;;;;26.27;18.00;;;17.70;99.90;;;;;;5043763;28;20025;-82
2024/03/06 12:26:57;;;;;;;24.58;16.88;;;18.30;99.90;;;;;;5039161;28;20020;-82
2024/03/06 12:29:23;;;;;;;23.08;16.80;;;18.90;99.10;;;;;;5043709;28;20067;-82
2024/03/06 12:31:48;;;;;;;21.42;15.25;;;19.40;97.60;;;;;;5059482;28;20080;-84
2024/03/06 12:34:17;;;;;;;21.55;15.68;;;19.80;96.20;;;;;;5043219;28;20016;-86